createdAt,value
2019-05-30T00:00:25.399Z,102119.93
2019-05-30T00:02:27.656Z,102118.70
2019-05-30T00:04:29.984Z,102102.27
2019-05-30T00:06:32.310Z,102106.49
2019-05-30T00:08:34.536Z,102103.47
2019-05-30T00:10:36.673Z,102101.95
2019-05-30T00:12:38.778Z,102097.41
2019-05-30T00:14:41.996Z,102092.66
2019-05-30T00:16:44.214Z,102092.27
2019-05-30T00:18:46.396Z,102092.77
2019-05-30T00:20:48.564Z,102090.20
2019-05-30T00:22:50.658Z,102093.41
2019-05-30T00:24:52.918Z,102086.23
2019-05-30T00:26:56.205Z,102094.15
2019-05-30T00:28:58.365Z,102093.41
2019-05-30T00:31:00.831Z,102088.63
2019-05-30T00:33:03.547Z,102086.42
2019-05-30T00:35:07.235Z,102084.47
2019-05-30T00:37:09.810Z,102077.44
2019-05-30T00:39:11.917Z,102078.25
2019-05-30T00:41:14.060Z,102082.97
2019-05-30T00:43:16.101Z,102080.07
2019-05-30T00:45:21.269Z,102078.69
2019-05-30T00:47:22.795Z,102075.25
2019-05-30T00:49:25.038Z,102075.00
2019-05-30T00:51:26.779Z,102072.41
2019-05-30T00:53:29.070Z,102080.08
2019-05-30T00:55:31.203Z,102073.55
2019-05-30T00:57:33.205Z,102066.38
2019-05-30T00:59:36.474Z,102066.06
2019-05-30T01:01:40.359Z,102069.63
2019-05-30T01:03:42.409Z,102063.43
2019-05-30T01:05:44.430Z,102069.14
2019-05-30T01:07:46.466Z,102070.70
2019-05-30T01:09:48.541Z,102070.88
2019-05-30T01:11:50.585Z,102067.75
2019-05-30T01:13:52.856Z,102066.12
2019-05-30T01:15:54.972Z,102068.64
2019-05-30T01:17:57.021Z,102065.23
2019-05-30T01:19:59.162Z,102065.73
2019-05-30T01:22:01.329Z,102061.39
2019-05-30T01:24:03.937Z,102060.94
2019-05-30T01:26:05.950Z,102066.72
2019-05-30T01:28:08.249Z,102057.80
2019-05-30T01:30:10.690Z,102060.00
2019-05-30T01:32:30.544Z,102048.48
2019-05-30T01:34:32.682Z,102047.42
2019-05-30T01:36:34.858Z,102050.92
2019-05-30T01:38:37.052Z,102045.59
2019-05-30T01:40:39.212Z,102048.12
2019-05-30T01:42:41.377Z,102038.05
2019-05-30T01:44:43.651Z,102035.83
2019-05-30T01:46:45.694Z,102039.81
2019-05-30T01:48:47.713Z,102037.05
2019-05-30T01:50:50.353Z,102026.34
2019-05-30T01:52:52.247Z,102032.99
2019-05-30T01:54:54.333Z,102030.97
2019-05-30T01:56:56.737Z,102037.04
2019-05-30T01:58:58.686Z,102038.50
2019-05-30T02:01:17.980Z,102040.04
2019-05-30T02:03:05.485Z,102031.86
2019-05-30T02:05:07.823Z,102032.10
2019-05-30T02:07:10.718Z,102029.45
2019-05-30T02:09:12.995Z,102027.58
2019-05-30T02:11:15.001Z,102030.20
2019-05-30T02:13:16.979Z,102026.66
2019-05-30T02:15:19.286Z,102026.66
2019-05-30T02:17:21.352Z,102019.98
2019-05-30T02:19:23.370Z,102020.63
2019-05-30T02:21:25.880Z,102029.91
2019-05-30T02:23:27.596Z,102022.25
2019-05-30T02:25:30.836Z,102024.62
2019-05-30T02:27:33.108Z,102023.73
2019-05-30T02:29:35.178Z,102019.66
2019-05-30T02:31:39.419Z,102022.02
2019-05-30T02:33:41.329Z,102025.02
2019-05-30T02:35:43.362Z,102020.96
2019-05-30T02:37:45.441Z,102017.38
2019-05-30T02:39:47.915Z,102018.69
2019-05-30T02:41:49.496Z,102026.05
2019-05-30T02:43:51.437Z,102026.95
2019-05-30T02:45:53.691Z,102028.83
2019-05-30T02:47:55.947Z,102031.55
2019-05-30T02:49:58.213Z,102028.98
2019-05-30T02:52:02.497Z,102031.19
2019-05-30T02:54:06.982Z,102032.04
2019-05-30T02:56:10.301Z,102032.53
2019-05-30T02:58:13.527Z,102030.53
2019-05-30T03:00:20.514Z,102029.39
2019-05-30T03:02:22.705Z,102028.38
2019-05-30T03:04:24.957Z,102024.72
2019-05-30T03:06:27.181Z,102033.30
2019-05-30T03:08:29.670Z,102030.53
2019-05-30T03:10:31.530Z,102026.37
2019-05-30T03:12:33.911Z,102029.14
2019-05-30T03:14:35.897Z,102033.75
2019-05-30T03:16:38.365Z,102026.37
2019-05-30T03:18:41.385Z,102026.37
2019-05-30T03:20:43.559Z,102022.22
2019-05-30T03:22:46.894Z,102028.17
2019-05-30T03:24:49.095Z,102017.09
2019-05-30T03:26:52.206Z,102025.08
2019-05-30T03:28:54.513Z,102024.58
2019-05-30T03:30:57.749Z,102027.09
2019-05-30T03:33:07.807Z,102029.48
2019-05-30T03:35:09.179Z,102029.97
2019-05-30T03:37:16.673Z,102028.50
2019-05-30T03:39:14.522Z,102023.94
2019-05-30T03:41:17.026Z,102029.10
2019-05-30T03:43:19.021Z,102026.70
2019-05-30T03:45:23.166Z,102033.50
2019-05-30T03:47:29.044Z,102034.02
2019-05-30T03:49:34.973Z,102034.31
2019-05-30T03:51:40.289Z,102040.30
2019-05-30T03:53:43.169Z,102038.23
2019-05-30T03:55:49.435Z,102039.16
2019-05-30T03:57:59.140Z,102039.48
2019-05-30T04:00:06.032Z,102045.11
2019-05-30T04:02:55.097Z,102035.13
2019-05-30T04:04:48.950Z,102035.25
2019-05-30T04:06:56.713Z,102038.02
2019-05-30T04:09:07.009Z,102042.17
2019-05-30T04:11:14.770Z,102044.05
2019-05-30T04:13:45.414Z,102050.36
2019-05-30T04:15:47.444Z,102049.54
2019-05-30T04:17:49.470Z,102047.26
2019-05-30T04:19:51.529Z,102047.42
2019-05-30T04:21:53.880Z,102046.77
2019-05-30T04:23:55.931Z,102046.03
2019-05-30T04:26:00.534Z,102050.30
2019-05-30T04:28:01.894Z,102050.44
2019-05-30T04:30:04.348Z,102052.06
2019-05-30T04:32:08.285Z,102047.26
2019-05-30T04:34:10.321Z,102043.52
2019-05-30T04:36:12.568Z,102048.64
2019-05-30T04:38:17.047Z,102054.46
2019-05-30T04:40:19.688Z,102049.73
2019-05-30T04:42:22.121Z,102046.39
2019-05-30T04:44:24.294Z,102052.91
2019-05-30T04:46:26.328Z,102050.63
2019-05-30T04:48:28.330Z,102053.56
2019-05-30T04:50:30.419Z,102062.86
2019-05-30T04:52:32.421Z,102057.97
2019-05-30T04:54:34.492Z,102063.02
2019-05-30T04:56:36.700Z,102063.31
2019-05-30T04:58:42.274Z,102069.78
2019-05-30T05:00:42.661Z,102061.72
2019-05-30T05:02:44.755Z,102068.40
2019-05-30T05:04:46.847Z,102066.12
2019-05-30T05:06:48.873Z,102062.70
2019-05-30T05:08:51.374Z,102069.13
2019-05-30T05:10:52.942Z,102075.33
2019-05-30T05:12:55.000Z,102071.17
2019-05-30T05:14:57.408Z,102073.78
2019-05-30T05:16:59.438Z,102070.14
2019-05-30T05:19:01.473Z,102073.48
2019-05-30T05:21:03.595Z,102077.64
2019-05-30T05:23:06.065Z,102081.23
2019-05-30T05:25:08.540Z,102076.17
2019-05-30T05:27:10.560Z,102086.61
2019-05-30T05:29:13.955Z,102088.48
2019-05-30T05:31:16.540Z,102089.46
2019-05-30T05:33:18.943Z,102096.72
2019-05-30T05:35:20.974Z,102099.73
2019-05-30T05:37:23.368Z,102092.89
2019-05-30T05:39:25.630Z,102091.13
2019-05-30T05:41:28.590Z,102098.30
2019-05-30T05:43:30.843Z,102097.81
2019-05-30T05:45:33.158Z,102096.80
2019-05-30T05:47:35.366Z,102095.91
2019-05-30T05:49:37.396Z,102098.34
2019-05-30T05:51:39.962Z,102098.78
2019-05-30T05:53:41.594Z,102101.88
2019-05-30T05:55:43.810Z,102097.23
2019-05-30T05:57:45.852Z,102107.36
2019-05-30T05:59:47.950Z,102106.49
2019-05-30T06:01:50.142Z,102107.70
2019-05-30T06:03:52.320Z,102106.08
2019-05-30T06:05:54.372Z,102112.04
2019-05-30T06:07:56.401Z,102119.15
2019-05-30T06:09:58.817Z,102122.97
2019-05-30T06:12:00.943Z,102126.72
2019-05-30T06:14:04.180Z,102126.08
2019-05-30T06:16:06.508Z,102135.21
2019-05-30T06:18:08.736Z,102137.83
2019-05-30T06:20:11.102Z,102137.83
2019-05-30T06:22:13.332Z,102137.53
2019-05-30T06:24:15.573Z,102138.92
2019-05-30T06:26:17.902Z,102141.64
2019-05-30T06:28:20.456Z,102144.63
2019-05-30T06:30:22.756Z,102142.17
2019-05-30T06:32:24.758Z,102146.16
2019-05-30T06:34:38.137Z,102147.82
2019-05-30T06:36:30.941Z,102150.73
2019-05-30T06:38:33.381Z,102142.56
2019-05-30T06:40:35.581Z,102147.64
2019-05-30T06:42:38.047Z,102150.73
2019-05-30T06:44:40.090Z,102160.45
2019-05-30T06:46:42.321Z,102157.55
2019-05-30T06:48:44.352Z,102164.86
2019-05-30T06:50:46.571Z,102152.53
2019-05-30T06:52:48.567Z,102153.56
2019-05-30T06:54:50.577Z,102156.39
2019-05-30T06:56:53.006Z,102160.94
2019-05-30T06:58:54.829Z,102167.39
2019-05-30T07:00:57.233Z,102164.13
2019-05-30T07:02:59.352Z,102163.19
2019-05-30T07:05:02.499Z,102155.11
2019-05-30T07:07:06.134Z,102161.53
2019-05-30T07:09:08.654Z,102158.28
2019-05-30T07:11:10.684Z,102167.97
2019-05-30T07:13:12.715Z,102169.20
2019-05-30T07:15:14.970Z,102174.91
2019-05-30T07:17:17.206Z,102176.80
2019-05-30T07:19:19.260Z,102167.91
2019-05-30T07:21:21.333Z,102175.66
2019-05-30T07:23:24.106Z,102170.20
2019-05-30T07:25:26.288Z,102186.04
2019-05-30T07:27:28.318Z,102184.98
2019-05-30T07:29:31.883Z,102193.38
2019-05-30T07:31:34.520Z,102193.20
2019-05-30T07:33:37.605Z,102191.42
2019-05-30T07:35:40.060Z,102196.40
2019-05-30T07:37:46.245Z,102186.20
2019-05-30T07:39:46.289Z,102182.37
2019-05-30T07:42:04.911Z,102187.73
2019-05-30T07:43:52.702Z,102190.27
2019-05-30T07:45:58.322Z,102185.59
2019-05-30T07:47:58.884Z,102198.42
2019-05-30T07:50:01.024Z,102204.46
2019-05-30T07:52:03.151Z,102203.16
2019-05-30T07:54:05.797Z,102216.29
2019-05-30T07:56:08.230Z,102217.10
2019-05-30T07:58:10.265Z,102228.51
2019-05-30T08:00:14.351Z,102225.48
2019-05-30T08:02:16.376Z,102230.54
2019-05-30T08:04:18.431Z,102239.44
2019-05-30T08:06:21.019Z,102239.52
2019-05-30T08:08:23.182Z,102250.16
2019-05-30T08:10:25.406Z,102250.77
2019-05-30T08:12:28.006Z,102247.14
2019-05-30T08:14:33.172Z,102251.31
2019-05-30T08:16:35.606Z,102257.44
2019-05-30T08:18:37.946Z,102246.89
2019-05-30T08:20:41.471Z,102261.38
2019-05-30T08:22:44.910Z,102257.45
2019-05-30T08:24:46.971Z,102264.39
2019-05-30T08:26:49.033Z,102256.20
2019-05-30T08:28:52.347Z,102250.87
2019-05-30T08:30:56.980Z,102258.86
2019-05-30T08:32:59.660Z,102257.30
2019-05-30T08:35:01.988Z,102261.69
2019-05-30T08:37:04.457Z,102259.03
2019-05-30T08:39:06.891Z,102257.27
2019-05-30T08:41:09.189Z,102260.39
2019-05-30T08:43:11.226Z,102261.00
2019-05-30T08:45:15.340Z,102263.89
2019-05-30T08:47:17.414Z,102261.78
2019-05-30T08:49:20.379Z,102259.47
2019-05-30T08:51:22.157Z,102254.80
2019-05-30T08:53:24.528Z,102256.45
2019-05-30T08:55:27.011Z,102258.29
2019-05-30T08:57:28.735Z,102255.16
2019-05-30T08:59:32.416Z,102258.07
2019-05-30T09:01:35.745Z,102256.11
2019-05-30T09:03:38.483Z,102259.50
2019-05-30T09:05:57.256Z,102265.88
2019-05-30T09:07:44.740Z,102260.02
2019-05-30T09:09:46.736Z,102260.36
2019-05-30T09:11:48.836Z,102258.32
2019-05-30T09:13:51.506Z,102266.16
2019-05-30T09:15:53.545Z,102264.81
2019-05-30T09:17:55.554Z,102265.88
2019-05-30T09:19:57.890Z,102269.42
2019-05-30T09:21:59.951Z,102272.64
2019-05-30T09:24:02.085Z,102278.81
2019-05-30T09:26:04.481Z,102279.64
2019-05-30T09:28:06.262Z,102268.03
2019-05-30T09:30:09.049Z,102273.60
2019-05-30T09:32:11.799Z,102276.12
2019-05-30T09:34:14.155Z,102284.77
2019-05-30T09:36:16.535Z,102289.31
2019-05-30T09:38:18.915Z,102299.41
2019-05-30T09:40:21.764Z,102297.91
2019-05-30T09:42:24.011Z,102295.78
2019-05-30T09:44:26.529Z,102294.37
2019-05-30T09:46:28.381Z,102295.89
2019-05-30T09:48:30.790Z,102295.48
2019-05-30T09:50:33.429Z,102299.76
2019-05-30T09:52:36.164Z,102303.49
2019-05-30T09:54:37.929Z,102304.98
2019-05-30T09:56:40.436Z,102306.75
2019-05-30T09:58:43.838Z,102307.09
2019-05-30T10:00:47.238Z,102312.25
2019-05-30T10:02:50.652Z,102321.36
2019-05-30T10:04:52.811Z,102316.00
2019-05-30T10:06:55.075Z,102317.63
2019-05-30T10:08:57.314Z,102313.34
2019-05-30T10:10:59.564Z,102320.58
2019-05-30T10:13:01.601Z,102325.00
2019-05-30T10:15:05.051Z,102326.84
2019-05-30T10:17:09.287Z,102332.33
2019-05-30T10:19:11.419Z,102329.82
2019-05-30T10:21:13.579Z,102330.80
2019-05-30T10:23:15.889Z,102330.80
2019-05-30T10:25:17.921Z,102327.86
2019-05-30T10:27:20.085Z,102332.61
2019-05-30T10:29:22.474Z,102327.57
2019-05-30T10:31:24.506Z,102330.96
2019-05-30T10:33:26.875Z,102327.11
2019-05-30T10:35:29.967Z,102324.61
2019-05-30T10:37:32.590Z,102332.76
2019-05-30T10:39:34.855Z,102324.06
2019-05-30T10:41:36.878Z,102321.83
2019-05-30T10:43:38.912Z,102322.94
2019-05-30T10:45:41.187Z,102326.62
2019-05-30T10:47:43.207Z,102333.72
2019-05-30T10:49:46.838Z,102333.85
2019-05-30T10:51:51.505Z,102339.22
2019-05-30T10:53:54.111Z,102340.75
2019-05-30T10:55:57.318Z,102342.14
2019-05-30T10:57:59.867Z,102343.42
2019-05-30T11:00:04.805Z,102344.70
2019-05-30T11:02:07.079Z,102341.17
2019-05-30T11:04:09.264Z,102332.96
2019-05-30T11:07:01.255Z,102340.32
2019-05-30T11:08:52.832Z,102341.86
2019-05-30T11:10:55.119Z,102345.14
2019-05-30T11:13:05.282Z,102349.13
2019-05-30T11:15:01.590Z,102343.53
2019-05-30T11:17:03.677Z,102343.44
2019-05-30T11:19:07.736Z,102342.13
2019-05-30T11:21:10.187Z,102332.95
2019-05-30T11:23:11.827Z,102348.57
2019-05-30T11:25:13.862Z,102338.31
2019-05-30T11:27:16.327Z,102339.97
2019-05-30T11:29:18.444Z,102343.20
2019-05-30T11:31:21.425Z,102339.45
2019-05-30T11:33:23.501Z,102345.50
2019-05-30T11:35:26.310Z,102343.91
2019-05-30T11:37:28.325Z,102338.80
2019-05-30T11:39:30.639Z,102346.89
2019-05-30T11:41:32.871Z,102356.32
2019-05-30T11:43:34.946Z,102354.57
2019-05-30T11:45:37.028Z,102361.21
2019-05-30T11:47:39.275Z,102350.86
2019-05-30T11:49:41.346Z,102351.42
2019-05-30T11:51:43.402Z,102354.53
2019-05-30T11:53:45.854Z,102354.55
2019-05-30T11:55:48.072Z,102362.24
2019-05-30T11:57:50.281Z,102360.23
2019-05-30T11:59:52.561Z,102356.78
2019-05-30T12:01:54.629Z,102360.14
2019-05-30T12:03:56.986Z,102361.30
2019-05-30T12:06:04.178Z,102365.58
2019-05-30T12:08:06.179Z,102356.78
2019-05-30T12:10:09.539Z,102352.30
2019-05-30T12:12:11.786Z,102352.98
2019-05-30T12:14:13.688Z,102356.34
2019-05-30T12:16:16.213Z,102355.56
2019-05-30T12:18:18.389Z,102374.62
2019-05-30T12:20:20.504Z,102373.71
2019-05-30T12:22:22.577Z,102374.64
2019-05-30T12:24:24.649Z,102376.98
2019-05-30T12:26:26.800Z,102377.21
2019-05-30T12:28:28.912Z,102375.31
2019-05-30T12:30:31.278Z,102377.23
2019-05-30T12:32:33.446Z,102380.39
2019-05-30T12:34:35.484Z,102379.52
2019-05-30T12:36:37.807Z,102381.38
2019-05-30T12:38:39.829Z,102377.42
2019-05-30T12:40:43.094Z,102396.30
2019-05-30T12:42:45.177Z,102388.84
2019-05-30T12:44:47.277Z,102393.72
2019-05-30T12:46:49.302Z,102394.12
2019-05-30T12:48:51.859Z,102388.63
2019-05-30T12:50:57.124Z,102391.14
2019-05-30T12:53:00.461Z,102388.59
2019-05-30T12:55:04.508Z,102402.58
2019-05-30T12:57:07.014Z,102399.89
2019-05-30T12:59:09.465Z,102393.94
2019-05-30T13:01:12.049Z,102383.41
2019-05-30T13:03:14.178Z,102394.88
2019-05-30T13:05:16.249Z,102393.56
2019-05-30T13:07:18.731Z,102394.39
2019-05-30T13:09:21.822Z,102389.01
2019-05-30T13:11:23.864Z,102387.42
2019-05-30T13:13:26.475Z,102384.94
2019-05-30T13:15:28.245Z,102386.63
2019-05-30T13:17:30.521Z,102389.81
2019-05-30T13:19:32.657Z,102390.86
2019-05-30T13:21:34.955Z,102392.75
2019-05-30T13:23:37.399Z,102395.77
2019-05-30T13:25:39.381Z,102390.28
2019-05-30T13:27:41.468Z,102401.88
2019-05-30T13:29:43.550Z,102401.05
2019-05-30T13:31:46.286Z,102401.23
2019-05-30T13:33:48.361Z,102394.30
2019-05-30T13:35:50.621Z,102397.81
2019-05-30T13:37:53.348Z,102397.36
2019-05-30T13:39:55.513Z,102396.45
2019-05-30T13:41:57.713Z,102401.82
2019-05-30T13:44:03.254Z,102399.25
2019-05-30T13:46:04.657Z,102401.82
2019-05-30T13:48:08.640Z,102406.02
2019-05-30T13:50:14.193Z,102406.24
2019-05-30T13:52:15.900Z,102410.31
2019-05-30T13:54:18.063Z,102409.50
2019-05-30T13:56:20.294Z,102411.61
2019-05-30T13:58:22.425Z,102403.80
2019-05-30T14:00:24.705Z,102410.72
2019-05-30T14:02:27.204Z,102411.89
2019-05-30T14:04:29.037Z,102409.55
2019-05-30T14:06:31.634Z,102415.84
2019-05-30T14:08:41.599Z,102424.47
2019-05-30T14:10:37.813Z,102418.19
2019-05-30T14:12:40.070Z,102410.34
2019-05-30T14:14:42.341Z,102418.17
2019-05-30T14:16:44.380Z,102412.95
2019-05-30T14:18:46.443Z,102419.93
2019-05-30T14:20:48.630Z,102429.83
2019-05-30T14:22:50.711Z,102412.09
2019-05-30T14:24:52.950Z,102413.01
2019-05-30T14:26:54.952Z,102415.67
2019-05-30T14:28:57.201Z,102415.05
2019-05-30T14:30:59.383Z,102411.98
2019-05-30T14:33:02.095Z,102410.31
2019-05-30T14:35:06.404Z,102416.19
2019-05-30T14:37:08.743Z,102402.91
2019-05-30T14:39:11.277Z,102410.08
2019-05-30T14:41:13.570Z,102408.28
2019-05-30T14:43:15.587Z,102418.26
2019-05-30T14:45:20.432Z,102411.61
2019-05-30T14:47:22.697Z,102404.70
2019-05-30T14:49:24.728Z,102406.72
2019-05-30T14:51:28.174Z,102407.02
2019-05-30T14:53:30.729Z,102399.19
2019-05-30T14:55:32.804Z,102404.98
2019-05-30T14:57:35.160Z,102401.20
2019-05-30T14:59:37.296Z,102406.66
2019-05-30T15:01:39.410Z,102403.50
2019-05-30T15:03:41.666Z,102398.53
2019-05-30T15:05:43.783Z,102405.89
2019-05-30T15:07:45.881Z,102408.69
2019-05-30T15:09:49.188Z,102401.47
2019-05-30T15:11:51.297Z,102400.63
2019-05-30T15:13:54.438Z,102400.80
2019-05-30T15:15:57.317Z,102397.13
2019-05-30T15:17:59.469Z,102396.96
2019-05-30T15:20:01.630Z,102396.59
2019-05-30T15:22:05.534Z,102393.77
2019-05-30T15:24:07.827Z,102402.25
2019-05-30T15:26:09.999Z,102400.25
2019-05-30T15:28:14.145Z,102403.88
2019-05-30T15:30:17.027Z,102410.70
2019-05-30T15:32:19.392Z,102411.15
2019-05-30T15:34:21.909Z,102404.84
2019-05-30T15:36:23.631Z,102411.48
2019-05-30T15:38:25.839Z,102403.49
2019-05-30T15:40:27.991Z,102404.53
2019-05-30T15:42:30.395Z,102392.45
2019-05-30T15:44:32.772Z,102404.80
2019-05-30T15:46:34.551Z,102404.53
2019-05-30T15:48:36.626Z,102414.37
2019-05-30T15:50:38.787Z,102412.87
2019-05-30T15:52:41.117Z,102409.39
2019-05-30T15:54:43.199Z,102414.40
2019-05-30T15:56:46.817Z,102408.55
2019-05-30T15:58:49.078Z,102408.37
2019-05-30T16:00:51.358Z,102405.48
2019-05-30T16:02:53.373Z,102404.48
2019-05-30T16:04:55.579Z,102407.28
2019-05-30T16:06:57.680Z,102404.66
2019-05-30T16:08:59.745Z,102405.33
2019-05-30T16:11:01.984Z,102403.25
2019-05-30T16:13:05.264Z,102404.42
2019-05-30T16:15:07.530Z,102409.63
2019-05-30T16:17:11.757Z,102412.58
2019-05-30T16:19:20.156Z,102407.19
2019-05-30T16:21:18.666Z,102409.98
2019-05-30T16:23:22.456Z,102406.47
2019-05-30T16:25:25.809Z,102410.48
2019-05-30T16:27:31.055Z,102411.70
2019-05-30T16:29:32.234Z,102407.64
2019-05-30T16:31:34.329Z,102412.06
2019-05-30T16:33:36.597Z,102417.27
2019-05-30T16:35:39.131Z,102414.38
2019-05-30T16:37:41.209Z,102411.31
2019-05-30T16:39:43.231Z,102410.17
2019-05-30T16:41:45.509Z,102415.50
2019-05-30T16:43:48.109Z,102414.95
2019-05-30T16:45:50.312Z,102406.02
2019-05-30T16:47:52.430Z,102414.90
2019-05-30T16:49:54.594Z,102415.51
2019-05-30T16:51:56.689Z,102403.73
2019-05-30T16:53:58.754Z,102405.84
2019-05-30T16:56:00.828Z,102403.28
2019-05-30T16:58:03.012Z,102405.34
2019-05-30T17:00:05.825Z,102399.77
2019-05-30T17:02:08.048Z,102404.89
2019-05-30T17:04:10.048Z,102410.02
2019-05-30T17:06:12.411Z,102407.23
2019-05-30T17:08:14.466Z,102403.97
2019-05-30T17:10:23.379Z,102401.89
2019-05-30T17:12:21.736Z,102402.13
2019-05-30T17:14:24.043Z,102402.56
2019-05-30T17:16:27.367Z,102403.27
2019-05-30T17:18:29.800Z,102400.59
2019-05-30T17:20:31.440Z,102400.94
2019-05-30T17:22:33.401Z,102393.03
2019-05-30T17:24:36.265Z,102397.69
2019-05-30T17:26:38.325Z,102393.03
2019-05-30T17:28:40.548Z,102394.44
2019-05-30T17:30:42.785Z,102397.23
2019-05-30T17:32:44.993Z,102398.05
2019-05-30T17:34:47.046Z,102392.57
2019-05-30T17:36:49.591Z,102396.98
2019-05-30T17:38:51.284Z,102396.18
2019-05-30T17:40:53.276Z,102393.50
2019-05-30T17:42:55.374Z,102384.17
2019-05-30T17:44:57.719Z,102393.39
2019-05-30T17:46:59.858Z,102383.91
2019-05-30T17:49:02.272Z,102384.59
2019-05-30T17:51:04.053Z,102386.26
2019-05-30T17:53:06.279Z,102392.67
2019-05-30T17:55:08.962Z,102389.84
2019-05-30T17:57:12.333Z,102389.03
2019-05-30T17:59:16.209Z,102395.52
2019-05-30T18:01:18.422Z,102395.29
2019-05-30T18:03:20.909Z,102399.68
2019-05-30T18:05:22.571Z,102402.03
2019-05-30T18:07:24.943Z,102404.02
2019-05-30T18:09:27.197Z,102397.82
2019-05-30T18:11:29.467Z,102401.20
2019-05-30T18:13:31.764Z,102401.42
2019-05-30T18:15:33.909Z,102405.98
2019-05-30T18:17:36.017Z,102401.22
2019-05-30T18:19:38.212Z,102402.39
2019-05-30T18:21:41.086Z,102403.88
2019-05-30T18:23:44.847Z,102407.04
2019-05-30T18:25:47.076Z,102407.27
2019-05-30T18:27:49.130Z,102406.81
2019-05-30T18:29:51.154Z,102402.16
2019-05-30T18:31:53.982Z,102403.20
2019-05-30T18:33:56.339Z,102399.80
2019-05-30T18:35:58.403Z,102400.84
2019-05-30T18:38:01.968Z,102403.41
2019-05-30T18:40:05.145Z,102405.15
2019-05-30T18:42:07.411Z,102408.29
2019-05-30T18:44:10.028Z,102406.20
2019-05-30T18:46:12.075Z,102405.81
2019-05-30T18:48:14.239Z,102409.88
2019-05-30T18:50:16.736Z,102403.17
2019-05-30T18:52:18.889Z,102405.19
2019-05-30T18:54:20.928Z,102407.08
2019-05-30T18:56:23.119Z,102397.89
2019-05-30T18:58:25.258Z,102398.86
2019-05-30T19:00:27.413Z,102405.59
2019-05-30T19:02:31.276Z,102404.62
2019-05-30T19:04:33.712Z,102416.02
2019-05-30T19:06:36.246Z,102412.19
2019-05-30T19:08:38.779Z,102412.20
2019-05-30T19:10:40.874Z,102413.08
2019-05-30T19:12:44.323Z,102412.84
2019-05-30T19:14:46.494Z,102420.20
2019-05-30T19:16:48.575Z,102422.84
2019-05-30T19:18:50.901Z,102420.73
2019-05-30T19:20:53.202Z,102419.80
2019-05-30T19:22:55.250Z,102420.37
2019-05-30T19:24:58.553Z,102422.42
2019-05-30T19:27:00.762Z,102418.58
2019-05-30T19:29:02.903Z,102420.84
2019-05-30T19:31:05.104Z,102426.53
2019-05-30T19:33:07.406Z,102421.55
2019-05-30T19:35:10.223Z,102423.40
2019-05-30T19:37:12.497Z,102432.73
2019-05-30T19:39:14.930Z,102434.13
2019-05-30T19:41:17.025Z,102432.16
2019-05-30T19:43:19.074Z,102432.63
2019-05-30T19:45:21.646Z,102434.16
2019-05-30T19:47:23.722Z,102432.28
2019-05-30T19:49:26.057Z,102442.96
2019-05-30T19:51:28.724Z,102447.25
2019-05-30T19:53:31.001Z,102447.12
2019-05-30T19:55:33.321Z,102448.06
2019-05-30T19:57:35.744Z,102452.25
2019-05-30T19:59:37.923Z,102453.58
2019-05-30T20:01:40.448Z,102447.36
2019-05-30T20:03:46.763Z,102447.83
2019-05-30T20:05:46.386Z,102454.98
2019-05-30T20:07:48.467Z,102459.54
2019-05-30T20:10:00.885Z,102447.98
2019-05-30T20:12:03.185Z,102458.31
2019-05-30T20:14:00.391Z,102467.02
2019-05-30T20:16:02.448Z,102464.49
2019-05-30T20:18:04.610Z,102456.61
2019-05-30T20:20:07.299Z,102461.95
2019-05-30T20:22:09.892Z,102463.25
2019-05-30T20:24:12.281Z,102467.28
2019-05-30T20:26:14.582Z,102469.05
2019-05-30T20:28:17.019Z,102469.20
2019-05-30T20:30:19.076Z,102469.47
2019-05-30T20:32:21.836Z,102476.43
2019-05-30T20:34:24.330Z,102475.27
2019-05-30T20:36:26.449Z,102478.57
2019-05-30T20:38:28.847Z,102474.13
2019-05-30T20:40:32.468Z,102470.17
2019-05-30T20:42:34.743Z,102470.69
2019-05-30T20:44:36.957Z,102472.35
2019-05-30T20:46:39.255Z,102475.84
2019-05-30T20:48:43.634Z,102475.65
2019-05-30T20:50:45.320Z,102481.46
2019-05-30T20:52:47.724Z,102479.48
2019-05-30T20:54:49.459Z,102484.83
2019-05-30T20:56:52.031Z,102481.83
2019-05-30T20:58:54.899Z,102487.34
2019-05-30T21:00:57.091Z,102492.27
2019-05-30T21:02:59.232Z,102484.96
2019-05-30T21:05:01.602Z,102484.38
2019-05-30T21:07:03.391Z,102486.89
2019-05-30T21:09:06.229Z,102489.95
2019-05-30T21:11:09.818Z,102487.67
2019-05-30T21:13:12.070Z,102485.74
2019-05-30T21:15:14.306Z,102499.67
2019-05-30T21:17:18.802Z,102494.54
2019-05-30T21:19:20.943Z,102492.47
2019-05-30T21:21:22.990Z,102496.89
2019-05-30T21:23:25.057Z,102498.38
2019-05-30T21:25:27.528Z,102499.67
2019-05-30T21:27:29.233Z,102498.75
2019-05-30T21:29:31.455Z,102499.64
2019-05-30T21:31:33.944Z,102506.98
2019-05-30T21:33:35.576Z,102504.80
2019-05-30T21:35:37.952Z,102491.66
2019-05-30T21:37:39.973Z,102503.61
2019-05-30T21:39:42.114Z,102510.24
2019-05-30T21:41:44.624Z,102506.06
2019-05-30T21:43:46.925Z,102509.66
2019-05-30T21:45:49.091Z,102511.77
2019-05-30T21:47:51.254Z,102511.39
2019-05-30T21:51:09.682Z,102513.66
2019-05-30T21:53:11.759Z,102510.83
2019-05-30T21:55:15.547Z,102520.10
2019-05-30T21:57:17.642Z,102518.59
2019-05-30T21:59:20.019Z,102510.02
2019-05-30T22:01:31.669Z,102518.47
2019-05-30T22:03:33.852Z,102513.66
2019-05-30T22:05:36.165Z,102514.65
2019-05-30T22:07:38.254Z,102502.86
2019-05-30T22:09:41.201Z,102509.44
2019-05-30T22:11:43.711Z,102506.66
2019-05-30T22:13:45.739Z,102505.50
2019-05-30T22:15:48.249Z,102501.42
2019-05-30T22:17:50.189Z,102502.59
2019-05-30T22:19:52.473Z,102506.19
2019-05-30T22:21:54.909Z,102514.89
2019-05-30T22:23:56.938Z,102513.97
2019-05-30T22:25:59.327Z,102509.13
2019-05-30T22:28:01.330Z,102516.28
2019-05-30T22:30:04.130Z,102514.53
2019-05-30T22:32:07.398Z,102514.55
2019-05-30T22:34:09.472Z,102519.06
2019-05-30T22:36:11.535Z,102521.61
2019-05-30T22:38:13.527Z,102522.04
2019-05-30T22:40:15.561Z,102525.19
2019-05-30T22:42:17.850Z,102524.71
2019-05-30T22:44:20.047Z,102524.47
2019-05-30T22:46:22.091Z,102521.94
2019-05-30T22:48:24.336Z,102516.95
2019-05-30T22:50:26.371Z,102519.73
2019-05-30T22:52:28.367Z,102515.83
2019-05-30T22:54:30.564Z,102524.58
2019-05-30T22:56:32.895Z,102523.95
2019-05-30T22:58:35.072Z,102521.83
2019-05-30T23:00:37.113Z,102522.98
2019-05-30T23:02:39.304Z,102526.97
2019-05-30T23:04:41.360Z,102528.03
2019-05-30T23:06:43.550Z,102530.18
2019-05-30T23:08:46.382Z,102527.97
2019-05-30T23:10:49.641Z,102521.50
2019-05-30T23:12:52.062Z,102523.12
2019-05-30T23:14:54.347Z,102525.42
2019-05-30T23:16:56.705Z,102520.19
2019-05-30T23:18:58.755Z,102521.73
2019-05-30T23:21:00.903Z,102530.03